createdAt,value
2019-04-22T00:01:32.643Z,8.65
2019-04-22T00:04:07.006Z,8.75
2019-04-22T00:06:57.502Z,8.67
2019-04-22T00:09:34.117Z,8.48
2019-04-22T00:12:11.214Z,8.58
2019-04-22T00:14:24.914Z,8.62
2019-04-22T00:17:07.078Z,8.47
2019-04-22T00:19:36.031Z,8.55
2019-04-22T00:22:07.779Z,8.47
2019-04-22T00:24:31.880Z,8.49
2019-04-22T00:27:13.819Z,8.50
2019-04-22T00:32:11.362Z,8.35
2019-04-22T00:34:51.907Z,8.13
2019-04-22T00:37:23.274Z,8.23
2019-04-22T00:39:53.894Z,8.18
2019-04-22T00:42:22.111Z,8.00
2019-04-22T00:45:01.950Z,8.02
2019-04-22T00:47:27.833Z,7.90
2019-04-22T00:52:31.236Z,7.88
2019-04-22T00:55:04.113Z,7.74
2019-04-22T00:57:28.042Z,7.59
2019-04-22T01:00:01.785Z,7.46
2019-04-22T01:02:34.656Z,7.40
2019-04-22T01:05:04.045Z,7.34
2019-04-22T01:07:30.878Z,7.35
2019-04-22T01:10:09.977Z,7.26
2019-04-22T01:12:39.543Z,7.26
2019-04-22T01:15:09.454Z,7.17
2019-04-22T01:17:43.512Z,7.09
2019-04-22T01:20:24.600Z,7.08
2019-04-22T01:22:38.245Z,7.09
2019-04-22T01:25:08.822Z,7.09
2019-04-22T01:27:36.141Z,6.99
2019-04-22T01:30:03.651Z,6.95
2019-04-22T01:32:31.081Z,6.98
2019-04-22T01:35:08.399Z,6.92
2019-04-22T01:37:46.020Z,6.89
2019-04-22T01:40:25.337Z,6.81
2019-04-22T01:43:03.507Z,6.82
2019-04-22T01:45:29.550Z,6.92
2019-04-22T01:47:55.372Z,6.86
2019-04-22T01:50:25.808Z,6.87
2019-04-22T01:53:06.473Z,6.82
2019-04-22T01:55:31.128Z,6.82
2019-04-22T01:57:59.637Z,6.84
2019-04-22T02:00:35.958Z,6.74
2019-04-22T02:03:07.244Z,6.73
2019-04-22T02:05:35.735Z,6.70
2019-04-22T02:08:15.060Z,6.64
2019-04-22T02:10:44.591Z,6.61
2019-04-22T02:13:11.494Z,6.60
2019-04-22T02:15:45.817Z,6.63
2019-04-22T02:18:18.566Z,6.66
2019-04-22T02:20:42.972Z,6.68
2019-04-22T02:23:43.918Z,6.63
2019-04-22T02:36:22.771Z,6.64
2019-04-22T02:38:59.766Z,6.55
2019-04-22T02:44:10.648Z,6.45
2019-04-22T02:46:33.141Z,6.40
2019-04-22T02:51:21.979Z,6.34
2019-04-22T03:01:41.183Z,6.14
2019-04-22T03:04:09.329Z,6.10
2019-04-22T03:06:43.560Z,6.06
2019-04-22T03:09:12.699Z,5.98
2019-04-22T03:11:45.668Z,6.02
2019-04-22T03:19:26.559Z,5.74
2019-04-22T03:21:50.263Z,5.70
2019-04-22T03:26:50.416Z,5.67
2019-04-22T03:30:00.448Z,5.60
2019-04-22T03:32:40.407Z,5.61
2019-04-22T03:35:20.187Z,5.63
2019-04-22T03:37:36.375Z,5.53
2019-04-22T03:40:28.295Z,5.49
2019-04-22T03:42:10.044Z,5.61
2019-04-22T03:44:51.799Z,5.52
2019-04-22T03:47:38.698Z,5.56
2019-04-22T03:49:56.560Z,5.63
2019-04-22T03:57:49.040Z,5.64
2019-04-22T04:02:28.864Z,5.65
2019-04-22T04:04:49.483Z,5.63
2019-04-22T04:07:40.683Z,5.66
2019-04-22T04:12:42.023Z,5.66
2019-04-22T04:15:14.191Z,5.77
2019-04-22T04:23:00.552Z,5.87
2019-04-22T04:25:29.368Z,5.88
2019-04-22T04:30:30.104Z,6.03
2019-04-22T04:35:28.040Z,6.11
2019-04-22T04:37:55.695Z,6.21
2019-04-22T04:45:24.115Z,6.27
2019-04-22T04:50:18.472Z,6.38
2019-04-22T04:53:08.283Z,6.40
2019-04-22T04:58:06.107Z,6.45
2019-04-22T05:13:02.683Z,6.83
2019-04-22T05:15:29.747Z,6.87
2019-04-22T05:18:12.528Z,6.96
2019-04-22T05:21:02.945Z,7.13
2019-04-22T05:23:05.812Z,7.22
2019-04-22T05:25:33.793Z,7.28
2019-04-22T05:28:07.578Z,7.45
2019-04-22T05:30:40.666Z,7.49
2019-04-22T05:33:08.758Z,7.59
2019-04-22T05:35:39.454Z,7.71
2019-04-22T05:40:45.802Z,7.87
2019-04-22T05:43:16.316Z,7.94
2019-04-22T05:45:43.115Z,8.00
2019-04-22T05:48:23.184Z,8.18
2019-04-22T05:50:54.572Z,8.24
2019-04-22T05:53:19.517Z,8.37
2019-04-22T05:58:22.577Z,8.51
2019-04-22T06:03:46.149Z,8.62
2019-04-22T06:06:15.121Z,8.73
2019-04-22T06:08:45.581Z,8.91
2019-04-22T06:11:24.383Z,9.04
2019-04-22T06:13:46.522Z,9.10
2019-04-22T06:16:21.805Z,9.23
2019-04-22T06:19:01.648Z,9.30
2019-04-22T06:21:27.832Z,9.23
2019-04-22T06:29:02.193Z,9.31
2019-04-22T06:31:37.203Z,9.42
2019-04-22T06:34:06.029Z,9.62
2019-04-22T06:36:38.053Z,9.69
2019-04-22T06:39:10.538Z,9.80
2019-04-22T06:41:40.230Z,9.90
2019-04-22T06:44:22.705Z,9.93
2019-04-22T06:46:52.298Z,9.92
2019-04-22T06:49:26.794Z,9.98
2019-04-22T06:51:57.349Z,10.13
2019-04-22T06:56:57.817Z,10.32
2019-04-22T06:59:25.132Z,10.28
2019-04-22T07:04:30.380Z,10.56
2019-04-22T07:07:05.387Z,10.73
2019-04-22T07:09:41.085Z,10.78
2019-04-22T07:12:05.012Z,10.95
2019-04-22T07:14:37.330Z,11.09
2019-04-22T07:17:10.235Z,11.10
2019-04-22T07:19:40.349Z,11.25
2019-04-22T07:22:11.098Z,11.38
2019-04-22T07:29:54.267Z,11.72
2019-04-22T07:32:18.635Z,11.66
2019-04-22T07:34:50.442Z,11.68
2019-04-22T07:37:28.007Z,11.93
2019-04-22T07:39:45.990Z,11.98
2019-04-22T07:42:19.315Z,12.09
2019-04-22T07:44:53.216Z,12.27
2019-04-22T07:47:29.547Z,12.30
2019-04-22T07:49:59.177Z,12.40
2019-04-22T07:52:31.879Z,12.58
2019-04-22T07:54:58.524Z,12.67
2019-04-22T08:00:10.952Z,12.61
2019-04-22T08:02:37.691Z,12.73
2019-04-22T08:07:36.018Z,13.01
2019-04-22T08:10:21.242Z,13.11
2019-04-22T08:15:12.946Z,13.54
2019-04-22T08:17:56.414Z,13.68
2019-04-22T08:20:18.133Z,13.80
2019-04-22T08:22:50.783Z,13.94
2019-04-22T08:25:14.558Z,13.99
2019-04-22T08:27:51.914Z,14.02
2019-04-22T08:30:23.646Z,14.16
2019-04-22T08:32:48.810Z,14.26
2019-04-22T08:35:29.762Z,14.54
2019-04-22T08:38:06.927Z,14.54
2019-04-22T08:40:29.262Z,14.86
2019-04-22T08:43:07.484Z,14.86
2019-04-22T08:45:33.373Z,15.02
2019-04-22T08:47:54.841Z,15.23
2019-04-22T08:50:28.374Z,15.23
2019-04-22T08:53:02.093Z,15.41
2019-04-22T08:55:33.990Z,15.55
2019-04-22T08:58:16.704Z,15.60
2019-04-22T09:00:38.478Z,15.66
2019-04-22T09:03:08.860Z,15.75
2019-04-22T09:05:53.569Z,15.80
2019-04-22T09:13:10.203Z,16.21
2019-04-22T09:15:55.502Z,16.27
2019-04-22T09:18:14.746Z,16.47
2019-04-22T09:20:49.303Z,16.70
2019-04-22T09:23:18.292Z,16.70
2019-04-22T09:26:01.382Z,16.73
2019-04-22T09:28:17.501Z,16.92
2019-04-22T09:30:55.333Z,17.16
2019-04-22T09:33:20.918Z,17.34
2019-04-22T09:35:52.147Z,17.26
2019-04-22T09:38:31.224Z,17.07
2019-04-22T09:40:52.885Z,17.30
2019-04-22T09:43:31.616Z,17.48
2019-04-22T09:45:54.477Z,17.63
2019-04-22T09:48:30.190Z,17.78
2019-04-22T09:51:19.054Z,17.85
2019-04-22T09:53:32.192Z,17.60
2019-04-22T09:56:03.839Z,17.92
2019-04-22T09:58:33.587Z,18.01
2019-04-22T10:01:20.235Z,18.22
2019-04-22T10:03:45.144Z,18.27
2019-04-22T10:06:21.173Z,18.46
2019-04-22T10:08:52.741Z,18.66
2019-04-22T10:11:24.019Z,18.68
2019-04-22T10:13:47.573Z,18.81
2019-04-22T10:16:22.660Z,18.89
2019-04-22T10:18:46.046Z,18.81
2019-04-22T10:21:29.442Z,18.99
2019-04-22T10:23:54.677Z,19.17
2019-04-22T10:26:21.780Z,19.34
2019-04-22T10:28:55.303Z,19.58
2019-04-22T10:31:23.949Z,19.83
2019-04-22T10:33:46.900Z,20.28
2019-04-22T10:35:59.606Z,20.53
2019-04-22T10:38:30.423Z,20.93
2019-04-22T10:41:00.821Z,21.61
2019-04-22T10:43:30.395Z,22.20
2019-04-22T10:45:59.947Z,22.63
2019-04-22T10:48:30.297Z,22.79
2019-04-22T10:51:00.935Z,23.10
2019-04-22T10:53:31.288Z,23.61
2019-04-22T10:56:01.074Z,24.02
2019-04-22T10:58:30.859Z,23.71
2019-04-22T11:01:00.413Z,24.28
2019-04-22T11:03:31.158Z,24.71
2019-04-22T11:06:01.320Z,25.07
2019-04-22T11:08:38.509Z,25.27
2019-04-22T11:11:16.195Z,25.58
2019-04-22T11:13:35.837Z,25.86
2019-04-22T11:16:05.611Z,25.56
2019-04-22T11:18:35.785Z,25.21
2019-04-22T11:21:05.553Z,24.65
2019-04-22T11:23:36.148Z,23.65
2019-04-22T11:26:08.143Z,24.78
2019-04-22T11:28:38.150Z,25.01
2019-04-22T11:31:08.249Z,24.91
2019-04-22T11:33:38.570Z,25.60
2019-04-22T11:36:08.112Z,26.02
2019-04-22T11:38:45.015Z,26.54
2019-04-22T11:41:09.252Z,26.40
2019-04-22T11:43:39.051Z,26.31
2019-04-22T11:46:09.368Z,26.11
2019-04-22T11:48:40.115Z,25.89
2019-04-22T11:51:09.868Z,26.26
2019-04-22T11:53:40.740Z,27.01
2019-04-22T11:56:11.145Z,26.71
2019-04-22T11:58:40.793Z,26.55
2019-04-22T12:01:10.876Z,26.75
2019-04-22T12:03:40.321Z,27.25
2019-04-22T12:06:10.339Z,27.43
2019-04-22T12:08:39.896Z,27.48
2019-04-22T12:11:09.925Z,27.93
2019-04-22T12:13:42.070Z,27.88
2019-04-22T12:16:11.814Z,27.53
2019-04-22T12:18:41.175Z,28.17
2019-04-22T12:21:10.949Z,27.44
2019-04-22T12:23:41.265Z,27.95
2019-04-22T12:26:14.092Z,27.88
2019-04-22T12:28:43.006Z,27.50
2019-04-22T12:31:13.564Z,28.03
2019-04-22T12:33:43.413Z,27.50
2019-04-22T12:36:13.121Z,27.05
2019-04-22T12:38:42.479Z,26.87
2019-04-22T12:41:13.882Z,26.96
2019-04-22T12:43:43.263Z,26.39
2019-04-22T12:46:14.585Z,26.36
2019-04-22T12:48:45.382Z,25.84
2019-04-22T12:51:15.411Z,25.75
2019-04-22T12:53:46.348Z,25.56
2019-04-22T12:56:17.335Z,25.26
2019-04-22T12:58:47.678Z,24.96
2019-04-22T13:01:17.142Z,24.39
2019-04-22T13:03:46.580Z,24.39
2019-04-22T13:06:17.348Z,24.71
2019-04-22T13:08:47.700Z,25.52
2019-04-22T13:11:21.359Z,25.89
2019-04-22T13:13:49.358Z,25.86
2019-04-22T13:16:18.856Z,26.10
2019-04-22T13:18:54.871Z,26.98
2019-04-22T13:21:20.516Z,27.12
2019-04-22T13:23:50.808Z,27.91
2019-04-22T13:26:21.154Z,27.59
2019-04-22T13:28:51.471Z,26.75
2019-04-22T13:31:22.582Z,27.21
2019-04-22T13:33:55.201Z,27.27
2019-04-22T13:36:25.552Z,27.47
2019-04-22T13:38:55.225Z,27.27
2019-04-22T13:41:35.369Z,26.42
2019-04-22T13:43:56.151Z,25.70
2019-04-22T13:46:31.157Z,25.03
2019-04-22T13:49:24.007Z,24.37
2019-04-22T13:57:07.887Z,23.78
2019-04-22T13:59:10.175Z,23.62
2019-04-22T14:02:01.839Z,23.71
2019-04-22T14:04:34.669Z,23.62
2019-04-22T14:07:05.168Z,23.44
2019-04-22T14:09:35.963Z,22.96
2019-04-22T14:12:07.337Z,22.62
2019-04-22T14:14:39.166Z,22.63
2019-04-22T14:17:09.014Z,22.46
2019-04-22T14:19:39.124Z,22.86
2019-04-22T14:22:09.632Z,23.54
2019-04-22T14:24:40.504Z,24.03
2019-04-22T14:27:22.369Z,23.77
2019-04-22T14:29:41.937Z,22.48
2019-04-22T14:32:17.828Z,22.82
2019-04-22T14:34:42.841Z,22.49
2019-04-22T14:37:14.399Z,22.84
2019-04-22T14:39:44.108Z,23.08
2019-04-22T14:42:36.331Z,23.60
2019-04-22T14:45:18.131Z,23.51
2019-04-22T14:47:41.117Z,23.28
2019-04-22T14:50:16.071Z,22.43
2019-04-22T14:52:43.821Z,21.76
2019-04-22T14:55:01.922Z,21.07
2019-04-22T14:57:23.364Z,20.88
2019-04-22T14:59:53.869Z,20.19
2019-04-22T15:02:23.712Z,19.89
2019-04-22T15:04:54.207Z,19.84
2019-04-22T15:07:24.993Z,19.64
2019-04-22T15:09:55.711Z,19.49
2019-04-22T15:12:31.093Z,19.44
2019-04-22T15:14:57.592Z,19.24
2019-04-22T15:17:42.908Z,19.12
2019-04-22T15:20:31.895Z,19.11
2019-04-22T15:23:02.324Z,19.19
2019-04-22T15:25:32.514Z,19.17
2019-04-22T15:28:03.578Z,19.21
2019-04-22T15:30:33.287Z,19.43
2019-04-22T15:33:03.339Z,19.21
2019-04-22T15:35:33.594Z,19.10
2019-04-22T15:38:04.476Z,18.93
2019-04-22T15:40:34.630Z,19.00
2019-04-22T15:43:04.712Z,18.85
2019-04-22T15:45:34.939Z,19.14
2019-04-22T15:48:06.017Z,19.11
2019-04-22T15:50:36.917Z,19.04
2019-04-22T15:53:07.699Z,19.07
2019-04-22T15:55:38.803Z,18.73
2019-04-22T15:58:10.004Z,18.49
2019-04-22T16:00:51.684Z,18.19
2019-04-22T16:03:12.495Z,18.10
2019-04-22T16:05:42.015Z,17.95
2019-04-22T16:08:12.821Z,17.84
2019-04-22T16:10:43.859Z,17.65
2019-04-22T16:13:20.680Z,17.67
2019-04-22T16:15:44.637Z,17.56
2019-04-22T16:18:15.078Z,17.54
2019-04-22T16:20:46.177Z,17.25
2019-04-22T16:23:40.634Z,17.24
2019-04-22T16:26:15.633Z,17.12
2019-04-22T16:28:45.230Z,17.07
2019-04-22T16:31:15.410Z,17.00
2019-04-22T16:33:47.678Z,16.84
2019-04-22T16:36:16.707Z,16.82
2019-04-22T16:38:46.885Z,16.80
2019-04-22T16:41:17.041Z,16.87
2019-04-22T16:43:46.803Z,16.81
2019-04-22T16:46:16.114Z,16.69
2019-04-22T16:48:45.559Z,16.56
2019-04-22T16:51:16.163Z,16.48
2019-04-22T16:53:47.373Z,16.38
2019-04-22T16:56:17.194Z,16.24
2019-04-22T16:58:46.670Z,16.16
2019-04-22T17:01:34.793Z,16.05
2019-04-22T17:04:18.778Z,15.94
2019-04-22T17:06:49.787Z,15.92
2019-04-22T17:09:19.659Z,15.76
2019-04-22T17:11:49.892Z,15.74
2019-04-22T17:14:29.588Z,15.51
2019-04-22T17:16:50.728Z,15.51
2019-04-22T17:19:21.652Z,15.44
2019-04-22T17:21:51.261Z,15.40
2019-04-22T17:24:21.620Z,15.32
2019-04-22T17:26:52.581Z,15.25
2019-04-22T17:29:22.786Z,15.28
2019-04-22T17:31:58.342Z,15.22
2019-04-22T17:34:23.512Z,15.23
2019-04-22T17:36:53.266Z,15.07
2019-04-22T17:39:36.008Z,14.98
2019-04-22T17:42:18.700Z,14.93
2019-04-22T17:44:48.473Z,14.92
2019-04-22T17:47:30.243Z,14.84
2019-04-22T17:50:13.252Z,14.82
2019-04-22T17:52:42.057Z,14.65
2019-04-22T17:55:11.329Z,14.69
2019-04-22T17:57:39.346Z,14.61
2019-04-22T18:00:13.063Z,14.61
2019-04-22T18:02:43.382Z,14.52
2019-04-22T18:05:02.010Z,14.49
2019-04-22T18:07:48.800Z,14.43
2019-04-22T18:13:14.377Z,14.29
2019-04-22T18:15:19.407Z,14.21
2019-04-22T18:17:55.160Z,14.27
2019-04-22T18:20:17.474Z,14.28
2019-04-22T18:22:49.045Z,14.26
2019-04-22T18:25:20.163Z,14.18
2019-04-22T18:28:09.133Z,14.20
2019-04-22T18:30:21.927Z,14.12
2019-04-22T18:33:00.287Z,14.09
2019-04-22T18:35:32.421Z,14.08
2019-04-22T18:38:11.287Z,14.11
2019-04-22T18:40:36.288Z,13.96
2019-04-22T18:43:11.886Z,13.96
2019-04-22T18:48:03.964Z,13.92
2019-04-22T18:50:53.604Z,13.78
2019-04-22T18:53:29.966Z,13.77
2019-04-22T18:56:20.595Z,13.79
2019-04-22T18:58:46.362Z,13.79
2019-04-22T19:01:01.897Z,13.73
2019-04-22T19:03:42.729Z,13.67
2019-04-22T19:06:39.977Z,13.60
2019-04-22T19:08:55.652Z,13.58
2019-04-22T19:11:41.020Z,13.57
2019-04-22T19:14:06.021Z,13.54
2019-04-22T19:19:20.951Z,13.54
2019-04-22T19:21:35.501Z,13.46
2019-04-22T19:24:00.333Z,13.45
2019-04-22T19:26:44.296Z,13.39
2019-04-22T19:29:06.862Z,13.47
2019-04-22T19:31:34.908Z,13.37
2019-04-22T19:34:10.627Z,13.35
2019-04-22T19:36:43.627Z,13.30
2019-04-22T19:39:09.140Z,13.30
2019-04-22T19:41:42.212Z,13.18
2019-04-22T19:44:13.215Z,13.10
2019-04-22T19:46:52.937Z,13.06
2019-04-22T19:49:24.410Z,13.01
2019-04-22T19:51:55.918Z,13.02
2019-04-22T19:54:19.131Z,13.05
2019-04-22T19:56:40.333Z,12.92
2019-04-22T19:59:14.877Z,12.80
2019-04-22T20:02:09.630Z,12.77
2019-04-22T20:04:52.651Z,12.79
2019-04-22T20:07:21.222Z,12.72
2019-04-22T20:09:55.159Z,12.74
2019-04-22T20:12:21.832Z,12.70
2019-04-22T20:14:55.652Z,12.64
2019-04-22T20:17:26.798Z,12.55
2019-04-22T20:20:06.574Z,12.41
2019-04-22T20:22:30.208Z,12.38
2019-04-22T20:24:52.706Z,12.32
2019-04-22T20:27:30.359Z,12.24
2019-04-22T20:30:04.710Z,12.15
2019-04-22T20:32:32.724Z,12.10
2019-04-22T20:35:07.956Z,12.04
2019-04-22T20:37:38.599Z,12.02
2019-04-22T20:40:05.716Z,12.02
2019-04-22T20:45:09.626Z,12.06
2019-04-22T20:47:35.749Z,12.01
2019-04-22T20:50:12.193Z,11.95
2019-04-22T20:55:08.876Z,11.91
2019-04-22T20:57:48.008Z,11.76
2019-04-22T21:00:18.735Z,11.80
2019-04-22T21:02:36.250Z,11.73
2019-04-22T21:05:13.524Z,11.66
2019-04-22T21:07:48.379Z,11.71
2019-04-22T21:10:17.198Z,11.74
2019-04-22T21:12:43.707Z,11.68
2019-04-22T21:15:26.751Z,11.70
2019-04-22T21:17:53.991Z,11.65
2019-04-22T21:20:33.292Z,11.66
2019-04-22T21:22:58.324Z,11.50
2019-04-22T21:25:20.799Z,11.51
2019-04-22T21:28:06.197Z,11.53
2019-04-22T21:30:32.921Z,11.50
2019-04-22T21:32:57.549Z,11.42
2019-04-22T21:36:03.110Z,11.31
2019-04-22T21:38:08.392Z,11.29
2019-04-22T21:40:35.559Z,11.29
2019-04-22T21:43:12.174Z,11.23
2019-04-22T21:45:33.288Z,11.16
2019-04-22T21:48:24.623Z,11.19
2019-04-22T21:50:51.533Z,11.22
2019-04-22T21:53:25.240Z,11.14
2019-04-22T21:55:58.600Z,11.15
2019-04-22T21:58:36.293Z,11.15
2019-04-22T22:01:21.761Z,11.05
2019-04-22T22:03:50.315Z,11.01
2019-04-22T22:06:14.080Z,10.95
2019-04-22T22:08:51.315Z,10.99
2019-04-22T22:11:18.864Z,11.02
2019-04-22T22:13:50.541Z,10.94
2019-04-22T22:16:20.330Z,10.93
2019-04-22T22:18:59.224Z,10.89
2019-04-22T22:21:40.661Z,10.83
2019-04-22T22:24:01.302Z,10.76
2019-04-22T22:26:26.494Z,10.73
2019-04-22T22:29:05.341Z,10.72
2019-04-22T22:31:34.624Z,10.68
2019-04-22T22:34:08.062Z,10.63
2019-04-22T22:36:29.586Z,10.61
2019-04-22T22:38:58.524Z,10.54
2019-04-22T22:41:16.056Z,10.56
2019-04-22T22:43:50.505Z,10.43
2019-04-22T22:46:29.346Z,10.37
2019-04-22T22:49:09.880Z,10.27
2019-04-22T22:51:49.968Z,10.31
2019-04-22T22:54:12.091Z,10.25
2019-04-22T22:56:48.605Z,10.18
2019-04-22T22:59:20.358Z,10.15
2019-04-22T23:01:46.743Z,10.12
2019-04-22T23:04:17.990Z,10.04
2019-04-22T23:06:53.185Z,9.92
2019-04-22T23:09:19.565Z,10.03
2019-04-22T23:14:20.865Z,9.92
2019-04-22T23:16:40.860Z,9.94
2019-04-22T23:19:06.796Z,9.86
2019-04-22T23:21:41.714Z,9.85
2019-04-22T23:24:29.427Z,9.86
2019-04-22T23:27:14.592Z,9.80
2019-04-22T23:29:45.921Z,9.79
2019-04-22T23:32:23.799Z,9.74
2019-04-22T23:35:08.045Z,9.69
2019-04-22T23:37:35.671Z,9.73
2019-04-22T23:40:16.059Z,9.61
2019-04-22T23:42:46.264Z,9.60
2019-04-22T23:45:13.874Z,9.70
2019-04-22T23:47:39.308Z,9.69
2019-04-22T23:50:19.653Z,9.64
2019-04-22T23:52:58.749Z,9.57
2019-04-22T23:55:33.828Z,9.61
2019-04-22T23:58:03.492Z,9.53
